Madigan Hospital, Washington
Current Conditions -  °F | °C
As of 3:58 PM on Friday 31 Oct 2014 (Local Time) from KGRF Reporting Station
Drizzle Drizzle  
Wind Chill: 54°   Ceiling: Unl
Heat Index: 54°   Visibility: 10mi
Dew Point: 50°   Wind: 6mph
Humidity: 86%   Direction: 160°SSE
Pressure: 29.83"   Gusts: NA
Location:  47.1056°N, 122.55°W
Report Text: KGRF 312258Z AUTO 16005KT 10SM DZ SCT049 12/10 A2983 RMK AO2 SLP106 P0000 T01220099 $
Loading
Personal Weather Stations






























Interactive Weather Map
Tropical Storm Tracking
New forecast layout! Learn more

10-Day Weather Forecast

Advertisements
Track Severe Weather on mobile